createdAt,value
2019-05-01T00:00:52.976Z,5.78
2019-05-01T00:03:23.013Z,6.28
2019-05-01T00:05:53.123Z,5.75
2019-05-01T00:08:21.531Z,5.78
2019-05-01T00:11:09.331Z,6.28
2019-05-01T00:13:37.846Z,4.95
2019-05-01T00:16:06.077Z,5.75
2019-05-01T00:18:34.493Z,5.62
2019-05-01T00:21:02.888Z,5.95
2019-05-01T00:23:31.301Z,5.08
2019-05-01T00:25:59.708Z,5.92
2019-05-01T00:28:28.107Z,5.75
2019-05-01T00:30:56.586Z,5.17
2019-05-01T00:33:24.985Z,6.37
2019-05-01T00:35:53.405Z,5.78
2019-05-01T00:38:21.483Z,5.22
2019-05-01T00:40:49.885Z,5.72
2019-05-01T00:43:18.295Z,5.75
2019-05-01T00:45:46.366Z,4.78
2019-05-01T00:48:14.773Z,5.03
2019-05-01T00:50:43.200Z,6.00
2019-05-01T00:53:11.675Z,5.28
2019-05-01T00:55:47.900Z,5.55
2019-05-01T00:58:32.665Z,5.95
2019-05-01T01:01:18.914Z,5.35
2019-05-01T01:03:47.327Z,4.75
2019-05-01T01:06:15.731Z,5.62
2019-05-01T01:08:43.799Z,4.78
2019-05-01T01:11:12.201Z,4.83
2019-05-01T01:13:40.628Z,5.25
2019-05-01T01:16:09.033Z,5.62
2019-05-01T01:18:37.437Z,5.15
2019-05-01T01:21:05.840Z,5.05
2019-05-01T01:23:34.888Z,5.40
2019-05-01T01:26:03.416Z,5.03
2019-05-01T01:28:32.400Z,5.67
2019-05-01T01:31:00.493Z,5.22
2019-05-01T01:33:28.883Z,5.47
2019-05-01T01:35:56.955Z,5.28
2019-05-01T01:38:25.035Z,5.12
2019-05-01T01:40:53.577Z,5.42
2019-05-01T01:43:35.272Z,5.50
2019-05-01T01:46:18.008Z,4.60
2019-05-01T01:48:46.381Z,5.55
2019-05-01T01:51:15.303Z,4.93
2019-05-01T01:53:43.795Z,5.40
2019-05-01T01:56:12.533Z,4.83
2019-05-01T01:58:41.381Z,5.17
2019-05-01T02:01:27.646Z,4.62
2019-05-01T02:04:04.006Z,5.50
2019-05-01T02:06:32.469Z,5.17
2019-05-01T02:09:00.649Z,4.87
2019-05-01T02:11:29.341Z,4.67
2019-05-01T02:13:58.118Z,4.77
2019-05-01T02:16:26.583Z,4.93
2019-05-01T02:18:55.006Z,4.67
2019-05-01T02:21:23.480Z,4.47
2019-05-01T02:23:51.895Z,5.50
2019-05-01T02:26:21.933Z,5.07
2019-05-01T02:28:52.442Z,4.90
2019-05-01T02:31:29.310Z,5.17
2019-05-01T02:33:58.220Z,4.87
2019-05-01T02:36:28.451Z,4.80
2019-05-01T02:38:57.798Z,5.00
2019-05-01T02:41:27.428Z,4.83
2019-05-01T02:43:58.896Z,4.93
2019-05-01T02:46:28.845Z,4.60
2019-05-01T02:49:09.484Z,4.63
2019-05-01T02:51:39.096Z,4.77
2019-05-01T02:54:08.237Z,4.60
2019-05-01T02:56:40.910Z,5.47
2019-05-01T02:59:11.210Z,4.33
2019-05-01T03:01:47.108Z,4.77
2019-05-01T03:04:10.127Z,5.10
2019-05-01T03:06:40.155Z,4.93
2019-05-01T03:09:08.570Z,4.83
2019-05-01T03:11:39.990Z,4.67
2019-05-01T03:14:11.462Z,4.20
2019-05-01T03:16:40.810Z,5.20
2019-05-01T03:19:25.734Z,4.67
2019-05-01T03:21:55.808Z,4.53
2019-05-01T03:24:30.395Z,4.13
2019-05-01T03:26:59.089Z,4.17
2019-05-01T03:29:33.441Z,5.03
2019-05-01T03:32:17.177Z,4.80
2019-05-01T03:34:32.457Z,4.13
2019-05-01T03:37:00.865Z,3.93
2019-05-01T03:43:01.018Z,4.60
2019-05-01T03:45:33.750Z,4.70
2019-05-01T03:48:00.316Z,4.60
2019-05-01T03:50:29.260Z,4.70
2019-05-01T03:52:58.095Z,4.07
2019-05-01T03:55:26.782Z,4.13
2019-05-01T03:57:55.450Z,4.57
2019-05-01T04:00:34.628Z,5.40
2019-05-01T04:03:04.668Z,4.70
2019-05-01T04:05:33.068Z,4.40
2019-05-01T04:08:01.486Z,4.83
2019-05-01T04:10:30.153Z,4.67
2019-05-01T04:12:58.569Z,4.70
2019-05-01T04:15:26.657Z,5.77
2019-05-01T04:17:56.390Z,4.70
2019-05-01T04:20:25.166Z,5.10
2019-05-01T04:22:54.021Z,5.27
2019-05-01T04:25:23.062Z,4.87
2019-05-01T04:27:52.797Z,4.83
2019-05-01T04:30:38.939Z,4.80
2019-05-01T04:33:12.120Z,4.77
2019-05-01T04:35:51.034Z,5.77
2019-05-01T04:38:19.505Z,5.03
2019-05-01T04:40:48.382Z,4.83
2019-05-01T04:43:17.052Z,5.10
2019-05-01T04:45:45.689Z,5.00
2019-05-01T04:48:14.191Z,4.63
2019-05-01T04:50:42.659Z,4.03
2019-05-01T04:53:11.024Z,5.17
2019-05-01T04:55:39.904Z,4.60
2019-05-01T04:58:08.681Z,4.70
2019-05-01T05:00:37.350Z,5.03
2019-05-01T05:03:07.137Z,4.47
2019-05-01T05:05:35.808Z,5.17
2019-05-01T05:08:04.585Z,5.27
2019-05-01T05:10:33.533Z,4.90
2019-05-01T05:13:06.292Z,5.07
2019-05-01T05:15:54.811Z,5.40
2019-05-01T05:18:23.284Z,4.70
2019-05-01T05:20:52.232Z,5.13
2019-05-01T05:23:20.396Z,7.10
2019-05-01T05:25:48.793Z,4.83
2019-05-01T05:28:17.671Z,5.07
2019-05-01T05:30:47.420Z,4.70
2019-05-01T05:33:18.972Z,5.13
2019-05-01T05:35:48.232Z,5.67
2019-05-01T05:38:20.420Z,4.70
2019-05-01T05:40:49.157Z,5.17
2019-05-01T05:43:17.731Z,5.30
2019-05-01T05:45:46.477Z,4.12
2019-05-01T05:48:15.541Z,4.67
2019-05-01T05:50:47.149Z,5.05
2019-05-01T05:53:19.430Z,4.35
2019-05-01T05:55:50.501Z,5.22
2019-05-01T05:58:21.395Z,5.15
2019-05-01T06:00:55.959Z,4.78
2019-05-01T06:03:45.566Z,4.72
2019-05-01T06:06:18.692Z,5.05
2019-05-01T06:08:49.907Z,5.67
2019-05-01T06:11:24.378Z,5.12
2019-05-01T06:14:13.463Z,4.28
2019-05-01T06:16:59.643Z,5.62
2019-05-01T06:19:30.024Z,4.95
2019-05-01T06:22:18.426Z,4.70
2019-05-01T06:24:55.604Z,4.97
2019-05-01T06:27:24.542Z,5.75
2019-05-01T06:29:53.228Z,5.55
2019-05-01T06:32:21.296Z,5.37
2019-05-01T06:34:49.776Z,5.20
2019-05-01T06:37:20.955Z,6.12
2019-05-01T06:39:49.855Z,5.45
2019-05-01T06:42:20.012Z,6.08
2019-05-01T06:44:53.198Z,5.30
2019-05-01T06:47:29.363Z,5.75
2019-05-01T06:50:07.698Z,4.87
2019-05-01T06:52:37.947Z,5.00
2019-05-01T06:55:06.993Z,5.55
2019-05-01T06:57:38.545Z,6.30
2019-05-01T07:00:10.462Z,5.90
2019-05-01T07:02:40.092Z,5.17
2019-05-01T07:05:14.425Z,5.92
2019-05-01T07:07:39.891Z,6.33
2019-05-01T07:10:08.633Z,5.33
2019-05-01T07:12:38.080Z,5.95
2019-05-01T07:15:07.721Z,5.20
2019-05-01T07:17:35.810Z,6.33
2019-05-01T07:20:11.783Z,5.20
2019-05-01T07:22:42.176Z,5.67
2019-05-01T07:25:11.172Z,6.05
2019-05-01T07:27:39.836Z,6.03
2019-05-01T07:30:10.028Z,5.15
2019-05-01T07:32:41.055Z,5.92
2019-05-01T07:35:09.364Z,5.42
2019-05-01T07:37:38.218Z,5.78
2019-05-01T07:40:07.556Z,5.55
2019-05-01T07:42:37.887Z,5.37
2019-05-01T07:45:14.372Z,5.70
2019-05-01T07:47:45.194Z,5.58
2019-05-01T07:50:16.808Z,5.17
2019-05-01T07:52:47.772Z,5.50
2019-05-01T07:55:20.090Z,5.40
2019-05-01T07:57:49.207Z,5.62
2019-05-01T08:00:22.490Z,5.40
2019-05-01T08:02:51.076Z,5.35
2019-05-01T08:05:19.147Z,6.60
2019-05-01T08:07:47.562Z,5.90
2019-05-01T08:10:16.131Z,5.62
2019-05-01T08:12:45.245Z,6.17
2019-05-01T08:15:13.876Z,6.35
2019-05-01T08:17:43.928Z,6.20
2019-05-01T08:20:16.895Z,6.05
2019-05-01T08:22:45.356Z,6.20
2019-05-01T08:25:13.429Z,5.95
2019-05-01T08:27:43.483Z,5.70
2019-05-01T08:30:19.203Z,5.55
2019-05-01T08:32:49.265Z,6.37
2019-05-01T08:35:19.029Z,6.83
2019-05-01T08:37:47.444Z,6.37
2019-05-01T08:40:20.441Z,5.87
2019-05-01T08:42:46.607Z,6.20
2019-05-01T08:45:26.045Z,6.20
2019-05-01T08:48:00.356Z,5.83
2019-05-01T08:50:29.252Z,5.30
2019-05-01T08:52:57.696Z,6.25
2019-05-01T08:55:26.092Z,5.60
2019-05-01T08:57:54.180Z,6.15
2019-05-01T09:00:22.253Z,6.35
2019-05-01T09:02:50.671Z,5.90
2019-05-01T09:05:28.273Z,5.10
2019-05-01T09:07:51.330Z,5.80
2019-05-01T09:10:38.809Z,6.47
2019-05-01T09:13:07.233Z,6.00
2019-05-01T09:15:35.312Z,5.65
2019-05-01T09:18:03.812Z,6.03
2019-05-01T09:20:33.499Z,6.10
2019-05-01T09:23:01.620Z,6.37
2019-05-01T09:25:35.265Z,5.83
2019-05-01T09:28:12.146Z,5.15
2019-05-01T09:30:44.885Z,6.25
2019-05-01T09:33:13.347Z,6.25
2019-05-01T09:35:45.444Z,5.60
2019-05-01T09:38:11.243Z,5.75
2019-05-01T09:40:39.716Z,4.97
2019-05-01T09:43:08.196Z,6.10
2019-05-01T09:45:36.609Z,6.00
2019-05-01T09:48:05.427Z,6.15
2019-05-01T09:51:00.883Z,6.22
2019-05-01T09:53:34.207Z,5.08
2019-05-01T09:56:09.142Z,4.80
2019-05-01T09:58:37.589Z,4.85
2019-05-01T10:01:05.652Z,6.10
2019-05-01T10:03:33.744Z,6.03
2019-05-01T10:06:01.815Z,5.40
2019-05-01T10:08:30.233Z,5.22
2019-05-01T10:11:00.029Z,6.20
2019-05-01T10:13:28.941Z,6.42
2019-05-01T10:15:57.597Z,5.70
2019-05-01T10:18:26.033Z,5.97
2019-05-01T10:20:54.481Z,6.33
2019-05-01T10:23:22.572Z,5.92
2019-05-01T10:25:52.618Z,6.12
2019-05-01T10:28:38.952Z,5.85
2019-05-01T10:31:24.791Z,6.12
2019-05-01T10:33:54.843Z,5.45
2019-05-01T10:36:30.761Z,4.45
2019-05-01T10:38:59.225Z,5.25
2019-05-01T10:41:27.295Z,4.47
2019-05-01T10:43:55.376Z,4.62
2019-05-01T10:46:23.784Z,5.35
2019-05-01T10:48:51.865Z,5.83
2019-05-01T10:51:20.265Z,5.53
2019-05-01T10:53:48.345Z,4.67
2019-05-01T10:56:16.408Z,5.72
2019-05-01T10:58:44.489Z,5.30
2019-05-01T11:01:14.696Z,4.20
2019-05-01T11:03:43.108Z,4.40
2019-05-01T11:06:11.556Z,4.80
2019-05-01T11:08:39.997Z,4.12
2019-05-01T11:11:08.395Z,5.25
2019-05-01T11:13:55.843Z,4.85
2019-05-01T11:16:24.261Z,4.92
2019-05-01T11:18:52.692Z,5.60
2019-05-01T11:21:21.132Z,5.58
2019-05-01T11:23:49.574Z,5.95
2019-05-01T11:26:17.976Z,5.12
2019-05-01T11:28:46.053Z,4.72
2019-05-01T11:31:16.100Z,4.67
2019-05-01T11:33:46.140Z,4.95
2019-05-01T11:36:19.047Z,5.25
2019-05-01T11:38:57.866Z,6.12
2019-05-01T11:41:39.827Z,5.08
2019-05-01T11:44:08.296Z,5.42
2019-05-01T11:46:36.369Z,5.20
2019-05-01T11:49:05.040Z,6.08
2019-05-01T11:51:33.449Z,4.72
2019-05-01T11:54:02.307Z,5.50
2019-05-01T11:56:30.931Z,5.40
2019-05-01T11:58:59.400Z,5.40
2019-05-01T12:01:27.484Z,4.55
2019-05-01T12:03:55.905Z,4.55
2019-05-01T12:06:23.985Z,4.72
2019-05-01T12:08:52.381Z,4.97
2019-05-01T12:11:22.156Z,5.17
2019-05-01T12:13:50.224Z,4.67
2019-05-01T12:16:25.698Z,5.25
2019-05-01T12:18:54.094Z,5.30
2019-05-01T12:21:22.505Z,5.58
2019-05-01T12:23:50.905Z,5.22
2019-05-01T12:26:19.309Z,5.80
2019-05-01T12:28:47.381Z,5.00
2019-05-01T12:31:15.792Z,4.53
2019-05-01T12:33:44.196Z,4.87
2019-05-01T12:36:12.599Z,4.47
2019-05-01T12:38:40.996Z,5.10
2019-05-01T12:41:22.930Z,4.67
2019-05-01T12:43:51.324Z,4.70
2019-05-01T12:46:37.990Z,4.62
2019-05-01T12:49:06.127Z,5.20
2019-05-01T12:51:35.212Z,4.65
2019-05-01T12:54:05.251Z,4.92
2019-05-01T12:56:44.106Z,4.20
2019-05-01T12:59:12.580Z,3.65
2019-05-01T13:01:40.989Z,4.45
2019-05-01T13:04:09.388Z,5.33
2019-05-01T13:06:48.893Z,4.28
2019-05-01T13:09:07.881Z,4.37
2019-05-01T13:11:36.294Z,4.85
2019-05-01T13:14:04.692Z,5.22
2019-05-01T13:16:33.112Z,4.60
2019-05-01T13:19:01.511Z,3.55
2019-05-01T13:21:30.731Z,4.03
2019-05-01T13:23:59.136Z,3.90
2019-05-01T13:26:47.635Z,4.42
2019-05-01T13:29:17.676Z,4.70
2019-05-01T13:31:56.713Z,4.58
2019-05-01T13:34:25.112Z,4.67
2019-05-01T13:37:02.737Z,4.08
2019-05-01T13:39:23.646Z,4.65
2019-05-01T13:41:52.048Z,5.17
2019-05-01T13:44:20.444Z,4.15
2019-05-01T13:46:48.924Z,4.85
2019-05-01T13:49:17.397Z,5.30
2019-05-01T13:51:45.808Z,4.28
2019-05-01T13:54:13.867Z,4.15
2019-05-01T13:56:42.323Z,4.20
2019-05-01T13:59:11.987Z,4.22
2019-05-01T14:01:40.409Z,3.95
2019-05-01T14:04:09.557Z,3.72
2019-05-01T14:06:37.659Z,4.22
2019-05-01T14:09:09.366Z,3.87
2019-05-01T14:11:37.767Z,3.95
2019-05-01T14:14:06.364Z,4.15
2019-05-01T14:16:34.789Z,4.40
2019-05-01T14:19:03.167Z,4.65
2019-05-01T14:21:37.626Z,4.15
2019-05-01T14:24:10.472Z,3.47
2019-05-01T14:26:38.882Z,3.75
2019-05-01T14:29:07.304Z,3.85
2019-05-01T14:31:35.565Z,3.55
2019-05-01T14:34:04.045Z,3.90
2019-05-01T14:36:32.509Z,3.83
2019-05-01T14:39:00.918Z,4.37
2019-05-01T14:41:29.320Z,4.08
2019-05-01T14:43:57.724Z,4.10
2019-05-01T14:46:26.129Z,4.22
2019-05-01T14:48:54.581Z,3.83
2019-05-01T14:51:22.977Z,4.05
2019-05-01T14:53:51.432Z,3.47
2019-05-01T14:56:19.824Z,3.37
2019-05-01T14:58:47.990Z,4.40
2019-05-01T15:01:16.391Z,3.95
2019-05-01T15:03:44.478Z,3.30
2019-05-01T15:06:12.953Z,4.15
2019-05-01T15:08:41.348Z,4.03
2019-05-01T15:11:09.938Z,4.03
2019-05-01T15:13:55.375Z,3.58
2019-05-01T15:19:14.601Z,3.40
2019-05-01T15:21:43.004Z,3.95
2019-05-01T15:24:11.414Z,3.50
2019-05-01T15:26:39.867Z,4.08
2019-05-01T15:29:08.286Z,4.10
2019-05-01T15:31:36.347Z,3.95
2019-05-01T15:34:05.124Z,4.15
2019-05-01T15:36:33.592Z,3.98
2019-05-01T15:39:03.660Z,4.22
2019-05-01T15:44:41.832Z,3.85
2019-05-01T15:47:09.888Z,3.90
2019-05-01T15:49:38.298Z,5.08
2019-05-01T15:52:06.783Z,4.15
2019-05-01T15:54:34.932Z,4.58
2019-05-01T15:57:05.682Z,4.55
2019-05-01T15:59:33.751Z,5.17
2019-05-01T16:02:01.843Z,5.10
2019-05-01T16:04:29.923Z,4.33
2019-05-01T16:06:57.992Z,4.40
2019-05-01T16:09:27.077Z,4.75
2019-05-01T16:12:12.334Z,4.75
2019-05-01T16:14:41.479Z,4.58
2019-05-01T16:17:09.547Z,4.80
2019-05-01T16:19:38.120Z,4.83
2019-05-01T16:22:07.065Z,4.72
2019-05-01T16:24:35.468Z,5.10
2019-05-01T16:27:04.313Z,5.58
2019-05-01T16:29:32.791Z,5.08
2019-05-01T16:32:01.620Z,5.03
2019-05-01T16:34:30.657Z,4.80
2019-05-01T16:36:59.104Z,4.80
2019-05-01T16:39:45.353Z,5.05
2019-05-01T16:42:13.818Z,4.55
2019-05-01T16:44:42.227Z,4.20
2019-05-01T16:47:10.292Z,4.58
2019-05-01T16:49:38.715Z,5.15
2019-05-01T16:52:07.580Z,4.62
2019-05-01T16:54:35.990Z,4.83
2019-05-01T16:57:06.691Z,4.87
2019-05-01T16:59:34.751Z,4.83
2019-05-01T17:02:21.138Z,5.58
2019-05-01T17:04:56.615Z,5.28
2019-05-01T17:07:29.420Z,5.50
2019-05-01T17:10:15.707Z,5.35
2019-05-01T17:12:48.938Z,5.58
2019-05-01T17:15:19.258Z,5.47
2019-05-01T17:17:47.656Z,6.45
2019-05-01T17:20:16.619Z,5.42
2019-05-01T17:22:46.340Z,5.35
2019-05-01T17:25:15.156Z,5.92
2019-05-01T17:27:43.579Z,6.83
2019-05-01T17:30:14.262Z,6.37
2019-05-01T17:32:44.390Z,4.70
2019-05-01T17:35:13.044Z,5.08
2019-05-01T17:37:41.456Z,5.25
2019-05-01T17:40:10.500Z,4.45
2019-05-01T17:42:38.981Z,5.33
2019-05-01T17:45:08.035Z,4.95
2019-05-01T17:47:36.451Z,5.45
2019-05-01T17:50:05.587Z,5.30
2019-05-01T17:52:33.994Z,5.78
2019-05-01T17:55:02.392Z,5.08
2019-05-01T17:57:30.467Z,5.37
2019-05-01T18:00:00.513Z,5.40
2019-05-01T18:02:30.574Z,4.35
2019-05-01T18:05:09.145Z,5.45
2019-05-01T18:07:37.554Z,4.92
2019-05-01T18:10:07.692Z,5.62
2019-05-01T18:12:36.105Z,4.95
2019-05-01T18:15:06.140Z,5.05
2019-05-01T18:17:34.298Z,5.65
2019-05-01T18:20:02.696Z,5.42
2019-05-01T18:22:37.241Z,5.17
2019-05-01T18:25:17.035Z,5.05
2019-05-01T18:27:59.087Z,5.33
2019-05-01T18:30:29.125Z,5.78
2019-05-01T18:32:57.204Z,5.92
2019-05-01T18:35:25.275Z,5.47
2019-05-01T18:37:55.393Z,4.65
2019-05-01T18:40:25.708Z,5.45
2019-05-01T18:42:53.784Z,5.47
2019-05-01T18:45:47.930Z,5.50
2019-05-01T18:48:16.573Z,4.15
2019-05-01T18:50:49.480Z,5.15
2019-05-01T18:53:15.240Z,5.33
2019-05-01T18:55:43.653Z,5.60
2019-05-01T18:58:12.129Z,5.28
2019-05-01T19:00:40.526Z,5.60
2019-05-01T19:03:08.934Z,5.05
2019-05-01T19:05:37.332Z,5.50
2019-05-01T19:08:06.080Z,5.15
2019-05-01T19:10:34.485Z,4.28
2019-05-01T19:13:02.590Z,4.37
2019-05-01T19:15:31.044Z,4.15
2019-05-01T19:17:59.116Z,3.83
2019-05-01T19:20:27.657Z,3.83
2019-05-01T19:22:56.102Z,3.85
2019-05-01T19:25:24.550Z,3.40
2019-05-01T19:27:52.952Z,3.92
2019-05-01T19:30:21.936Z,3.40
2019-05-01T19:32:50.762Z,3.47
2019-05-01T19:35:23.335Z,3.15
2019-05-01T19:37:52.840Z,3.37
2019-05-01T19:40:19.645Z,3.85
2019-05-01T19:42:48.089Z,3.83
2019-05-01T19:45:18.323Z,3.00
2019-05-01T19:47:46.862Z,3.45
2019-05-01T19:50:16.166Z,3.80
2019-05-01T19:52:44.713Z,3.80
2019-05-01T19:55:13.234Z,5.78
2019-05-01T19:57:41.740Z,5.92
2019-05-01T20:00:10.669Z,5.03
2019-05-01T20:02:39.068Z,5.40
2019-05-01T20:05:10.967Z,4.70
2019-05-01T20:07:38.536Z,4.67
2019-05-01T20:10:09.057Z,6.75
2019-05-01T20:12:37.462Z,6.55
2019-05-01T20:15:06.737Z,4.12
2019-05-01T20:17:35.588Z,5.75
2019-05-01T20:20:06.145Z,5.80
2019-05-01T20:22:34.540Z,5.70
2019-05-01T20:25:03.025Z,5.40
2019-05-01T20:27:31.100Z,5.10
2019-05-01T20:29:59.512Z,4.60
2019-05-01T20:32:28.110Z,4.75
2019-05-01T20:34:59.241Z,4.08
2019-05-01T20:37:26.685Z,4.87
2019-05-01T20:39:55.098Z,3.90
2019-05-01T20:42:23.500Z,3.60
2019-05-01T20:45:03.923Z,3.47
2019-05-01T20:47:34.521Z,3.70
2019-05-01T20:49:52.173Z,3.60
2019-05-01T20:52:20.248Z,3.55
2019-05-01T20:54:48.657Z,3.40
2019-05-01T20:57:21.004Z,3.70
2019-05-01T20:59:48.524Z,3.25
2019-05-01T21:02:16.968Z,3.10
2019-05-01T21:04:47.027Z,3.52
2019-05-01T21:07:20.130Z,4.22
2019-05-01T21:09:56.964Z,3.30
2019-05-01T21:12:18.874Z,3.67
2019-05-01T21:14:49.594Z,3.83
2019-05-01T21:17:16.740Z,3.42
2019-05-01T21:19:45.156Z,3.30
2019-05-01T21:22:14.272Z,3.05
2019-05-01T21:24:44.349Z,4.30
2019-05-01T21:27:13.364Z,3.20
2019-05-01T21:29:41.945Z,3.15
2019-05-01T21:32:10.352Z,3.08
2019-05-01T21:34:38.747Z,3.80
2019-05-01T21:37:07.162Z,2.33
2019-05-01T21:39:35.232Z,3.25
2019-05-01T21:42:06.922Z,2.55
2019-05-01T21:44:33.514Z,2.45
2019-05-01T21:47:03.894Z,2.90
2019-05-01T21:49:33.301Z,3.15
2019-05-01T21:52:03.748Z,2.52
2019-05-01T21:54:32.042Z,2.27
2019-05-01T21:57:00.444Z,2.58
2019-05-01T21:59:28.533Z,3.25
2019-05-01T22:01:56.963Z,3.02
2019-05-01T22:04:28.009Z,3.10
2019-05-01T22:06:55.499Z,3.10
2019-05-01T22:09:25.532Z,3.17
2019-05-01T22:11:53.937Z,3.12
2019-05-01T22:14:38.926Z,2.60
2019-05-01T22:17:09.232Z,3.02
2019-05-01T22:19:37.700Z,3.35
2019-05-01T22:22:16.680Z,2.92
2019-05-01T22:24:49.432Z,2.92
2019-05-01T22:27:25.681Z,3.05
2019-05-01T22:29:57.163Z,2.62
2019-05-01T22:32:27.592Z,2.70
2019-05-01T22:35:01.764Z,2.35
2019-05-01T22:37:30.160Z,2.02
2019-05-01T22:40:00.193Z,2.52
2019-05-01T22:42:28.592Z,2.83
2019-05-01T22:44:56.985Z,2.67
2019-05-01T22:47:25.393Z,2.45
2019-05-01T22:49:53.788Z,2.30
2019-05-01T22:52:22.198Z,2.72
2019-05-01T22:54:50.593Z,2.30
2019-05-01T22:57:20.767Z,2.70
2019-05-01T23:00:09.816Z,2.33
2019-05-01T23:02:44.227Z,2.42
2019-05-01T23:05:13.460Z,2.35
2019-05-01T23:07:41.872Z,2.62
2019-05-01T23:10:10.805Z,2.65
2019-05-01T23:12:39.211Z,2.10
2019-05-01T23:15:16.509Z,2.08
2019-05-01T23:17:46.492Z,1.95
2019-05-01T23:20:16.232Z,2.20
2019-05-01T23:22:44.708Z,1.90
2019-05-01T23:25:13.110Z,2.00
2019-05-01T23:27:41.255Z,2.17
2019-05-01T23:30:10.864Z,1.70
2019-05-01T23:32:39.324Z,1.93
2019-05-01T23:35:07.858Z,2.40
2019-05-01T23:37:36.264Z,2.10
2019-05-01T23:40:10.827Z,2.17
2019-05-01T23:42:36.912Z,2.20
2019-05-01T23:45:06.341Z,2.42
2019-05-01T23:47:34.412Z,2.00
2019-05-01T23:50:02.811Z,1.87
2019-05-01T23:52:33.902Z,1.90
2019-05-01T23:55:01.036Z,1.90
2019-05-01T23:57:29.476Z,1.87
2019-05-01T23:59:57.891Z,1.95
